Time;durP1;ratioP1;P1;durP2;ratioP2;P2;SDS_P1;SDS_P2;PMS_P1;PMS_P2;Temp;Humidity;BMP_temperature;BMP_pressure;BME280_temperature;BME280_humidity;BME280_pressure;Samples;Min_cycle;Max_cycle;Signal;HPM_P1;HPM_P2
2023/08/04 00:30:09;;;;;;;9.82;5.78;;;;;;;;;;4894437;29;20050;-73
2023/08/04 01:27:53;;;;;;;8.23;6.10;;;;;;;;;;4860783;29;20136;-73
2023/08/04 01:46:34;;;;;;;8.85;5.50;;;;;;;;;;4927379;28;20086;-72
2023/08/04 01:50:17;;;;;;;8.48;4.95;;;;;;;;;;4974038;28;20127;-72
2023/08/04 01:53:50;;;;;;;8.63;5.82;;;;;;;;;;4991836;28;20041;-72
2023/08/04 01:57:41;;;;;;;6.30;5.20;;;;;;;;;;5000094;28;20077;-72
2023/08/04 02:00:43;;;;;;;6.75;5.88;;;;;;;;;;4915963;29;20076;-74
2023/08/04 02:04:16;;;;;;;7.90;5.75;;;;;;;;;;5033243;28;20036;-74
2023/08/04 02:11:39;;;;;;;9.90;6.57;;;;;;;;;;5052375;28;20078;-74
2023/08/04 02:26:13;;;;;;;9.68;6.60;;;;;;;;;;4875676;29;20442;-74
2023/08/04 02:28:54;;;;;;;8.10;6.78;;;;;;;;;;4876204;29;20045;-74
2023/08/04 02:31:32;;;;;;;8.18;6.75;;;;;;;;;;4955452;28;20190;-74
2023/08/04 02:34:33;;;;;;;11.32;7.43;;;;;;;;;;4951622;28;20042;-72
2023/08/04 02:38:09;;;;;;;8.98;7.68;;;;;;;;;;4896943;29;20043;-72
2023/08/04 02:41:41;;;;;;;8.23;7.25;;;;;;;;;;4916251;29;20056;-73
2023/08/04 02:44:36;;;;;;;9.38;7.95;;;;;;;;;;4894271;29;20055;-72
2023/08/04 02:51:24;;;;;;;;;;;;;;;;;;;;;
2023/08/04 02:55:32;;;;;;;13.88;8.48;;;;;;;;;;4851996;29;20057;-73
2023/08/04 03:10:55;;;;;;;9.73;7.78;;;;;;;;;;4785841;29;20042;-73
2023/08/04 03:15:37;;;;;;;13.70;7.65;;;;;;;;;;4804446;29;20078;-73
2023/08/04 03:33:03;;;;;;;11.70;7.05;;;;;;;;;;4935217;28;20037;-71
2023/08/04 03:36:15;;;;;;;8.25;6.80;;;;;;;;;;5023657;28;20064;-70
2023/08/04 03:39:45;;;;;;;14.57;7.95;;;;;;;;;;5032077;28;20076;-74
2023/08/04 03:43:25;;;;;;;;;;;;;;;;;;;;;
2023/08/04 03:46:33;;;;;;;8.63;6.57;;;;;;;;;;4939262;29;20106;-74
2023/08/04 03:49:20;;;;;;;11.02;6.18;;;;;;;;;;4947475;29;20051;-74
2023/08/04 03:51:52;;;;;;;13.93;7.60;;;;;;;;;;4968016;28;20043;-74
2023/08/04 03:55:08;;;;;;;11.30;7.88;;;;;;;;;;4969453;28;20437;-72
2023/08/04 03:57:40;;;;;;;11.87;7.07;;;;;;;;;;5073887;28;20040;-73
2023/08/04 04:00:31;;;;;;;10.98;7.20;;;;;;;;;;5074778;28;20122;-72
2023/08/04 04:03:05;;;;;;;13.60;8.00;;;;;;;;;;5052353;28;20113;-72
2023/08/04 04:09:16;;;;;;;12.27;8.18;;;;;;;;;;5067585;28;20040;-72
2023/08/04 04:11:58;;;;;;;11.25;7.63;;;;;;;;;;5075524;28;20102;-72
2023/08/04 04:15:18;;;;;;;8.07;7.28;;;;;;;;;;5075851;28;20119;-74
2023/08/04 04:22:08;;;;;;;14.57;8.60;;;;;;;;;;5073489;28;20142;-73
2023/08/04 04:29:06;;;;;;;9.70;8.00;;;;;;;;;;5031514;28;20124;-72
2023/08/04 04:35:49;;;;;;;10.18;7.75;;;;;;;;;;4973417;28;20037;-73
2023/08/04 04:42:27;;;;;;;13.98;7.88;;;;;;;;;;4988605;28;20149;-73
2023/08/04 04:46:23;;;;;;;;;;;;;;;;;;;;;
2023/08/04 04:49:37;;;;;;;12.77;7.80;;;;;;;;;;4967487;28;20062;-74
2023/08/04 04:52:33;;;;;;;11.68;7.85;;;;;;;;;;4980030;28;20057;-76
2023/08/04 04:55:30;;;;;;;12.18;7.13;;;;;;;;;;4965367;28;20037;-73
2023/08/04 05:05:10;;;;;;;11.13;7.00;;;;;;;;;;4998941;28;20052;-73
2023/08/04 05:12:08;;;;;;;10.00;6.70;;;;;;;;;;4990145;28;20105;-73
2023/08/04 05:15:30;;;;;;;10.82;7.45;;;;;;;;;;5029056;28;20410;-73
2023/08/04 05:18:21;;;;;;;10.93;6.30;;;;;;;;;;5051856;28;20043;-74
2023/08/04 05:20:52;;;;;;;9.52;6.32;;;;;;;;;;5074811;28;20119;-75
2023/08/04 05:23:22;;;;;;;10.05;6.38;;;;;;;;;;5073950;28;20024;-75
2023/08/04 05:25:57;;;;;;;9.45;6.05;;;;;;;;;;5084520;28;20029;-74
2023/08/04 05:28:32;;;;;;;9.40;5.68;;;;;;;;;;5041815;28;20103;-75
2023/08/04 05:31:18;;;;;;;9.68;5.97;;;;;;;;;;5057679;28;20028;-73
2023/08/04 05:34:35;;;;;;;11.18;6.50;;;;;;;;;;5070510;28;20036;-72
2023/08/04 05:37:34;;;;;;;10.13;6.07;;;;;;;;;;5075471;28;20039;-73
2023/08/04 05:41:00;;;;;;;9.95;6.13;;;;;;;;;;5069476;28;20048;-74
2023/08/04 05:43:44;;;;;;;10.65;5.60;;;;;;;;;;5068480;28;20040;-73
2023/08/04 05:46:12;;;;;;;10.50;5.40;;;;;;;;;;5075545;28;20069;-75
2023/08/04 05:49:39;;;;;;;10.18;6.22;;;;;;;;;;5074039;28;20024;-73
2023/08/04 05:52:31;;;;;;;13.98;7.57;;;;;;;;;;4994912;28;20041;-72
2023/08/04 05:55:03;;;;;;;18.27;7.38;;;;;;;;;;4992533;28;20584;-72
2023/08/04 05:57:38;;;;;;;11.85;6.78;;;;;;;;;;4993522;28;20042;-72
2023/08/04 06:00:15;;;;;;;11.93;5.95;;;;;;;;;;5000474;28;20521;-73
2023/08/04 06:02:43;;;;;;;13.07;7.38;;;;;;;;;;5013574;28;20047;-72
2023/08/04 06:05:10;;;;;;;12.07;6.90;;;;;;;;;;5073923;28;20024;-72
2023/08/04 06:07:47;;;;;;;17.05;7.80;;;;;;;;;;5074165;28;20063;-73
2023/08/04 06:10:31;;;;;;;14.73;6.75;;;;;;;;;;5074216;28;20044;-71
2023/08/04 06:13:06;;;;;;;13.18;6.70;;;;;;;;;;5074226;28;20036;-75
2023/08/04 06:15:32;;;;;;;9.70;6.07;;;;;;;;;;5073762;28;20037;-75
2023/08/04 06:18:43;;;;;;;18.30;6.72;;;;;;;;;;5055907;28;20474;-73
2023/08/04 06:21:14;;;;;;;12.03;5.43;;;;;;;;;;5071111;28;20067;-71
2023/08/04 06:23:45;;;;;;;8.60;5.82;;;;;;;;;;5055662;28;20029;-73
2023/08/04 06:26:31;;;;;;;9.70;5.90;;;;;;;;;;5072704;28;20058;-72
2023/08/04 06:29:03;;;;;;;16.13;5.95;;;;;;;;;;5071917;28;20397;-71
2023/08/04 06:31:47;;;;;;;12.38;6.45;;;;;;;;;;5066077;28;20180;-72
2023/08/04 06:35:13;;;;;;;11.77;5.47;;;;;;;;;;5072733;28;20036;-72
2023/08/04 06:39:11;;;;;;;10.32;6.00;;;;;;;;;;5007640;28;20039;-72
2023/08/04 06:41:44;;;;;;;5.80;4.75;;;;;;;;;;5059938;28;20036;-72
2023/08/04 06:44:13;;;;;;;9.00;5.00;;;;;;;;;;5072346;28;20059;-72
2023/08/04 06:46:47;;;;;;;6.18;5.00;;;;;;;;;;5056019;28;20052;-73
2023/08/04 06:49:14;;;;;;;9.32;5.65;;;;;;;;;;5065219;28;20039;-72
2023/08/04 06:51:42;;;;;;;8.50;5.50;;;;;;;;;;5073300;28;20029;-72
2023/08/04 06:54:09;;;;;;;9.48;4.90;;;;;;;;;;5072703;28;20040;-72
2023/08/04 06:56:41;;;;;;;8.45;5.25;;;;;;;;;;5055643;28;20032;-73
2023/08/04 06:59:11;;;;;;;5.90;5.30;;;;;;;;;;5072660;28;20029;-72
2023/08/04 07:01:39;;;;;;;7.63;5.57;;;;;;;;;;5073112;28;20078;-73
2023/08/04 07:04:05;;;;;;;7.68;5.28;;;;;;;;;;5072752;28;20127;-72
2023/08/04 07:06:31;;;;;;;8.48;5.43;;;;;;;;;;5072873;28;20100;-72
2023/08/04 07:08:57;;;;;;;10.00;4.93;;;;;;;;;;5072758;28;20167;-71
2023/08/04 07:11:26;;;;;;;9.57;5.28;;;;;;;;;;5072936;28;20491;-71
2023/08/04 07:13:52;;;;;;;11.25;6.03;;;;;;;;;;5072329;28;20032;-72
2023/08/04 07:16:18;;;;;;;7.65;4.82;;;;;;;;;;5072868;28;20021;-70
2023/08/04 07:18:44;;;;;;;6.22;5.05;;;;;;;;;;5073215;28;20071;-72
2023/08/04 07:21:13;;;;;;;8.98;5.05;;;;;;;;;;5073051;28;20058;-72
2023/08/04 07:23:41;;;;;;;7.57;4.80;;;;;;;;;;5072539;28;20041;-71
2023/08/04 07:26:07;;;;;;;8.50;4.55;;;;;;;;;;5071271;28;20025;-71
2023/08/04 07:28:34;;;;;;;7.10;4.57;;;;;;;;;;5072638;28;20099;-71
2023/08/04 07:31:08;;;;;;;9.98;4.97;;;;;;;;;;5071948;28;20028;-71
2023/08/04 07:33:35;;;;;;;13.48;5.30;;;;;;;;;;5071836;28;20544;-71
2023/08/04 07:36:02;;;;;;;8.32;4.68;;;;;;;;;;5071766;28;20016;-71
2023/08/04 07:38:29;;;;;;;9.48;5.55;;;;;;;;;;5071491;28;20032;-71
2023/08/04 07:40:58;;;;;;;9.73;4.25;;;;;;;;;;5069598;28;20119;-70
2023/08/04 07:43:25;;;;;;;8.82;4.35;;;;;;;;;;5071866;28;20028;-70
2023/08/04 07:45:53;;;;;;;9.23;4.50;;;;;;;;;;5071274;28;20035;-71
2023/08/04 07:48:19;;;;;;;8.52;4.60;;;;;;;;;;5071425;28;20051;-69
2023/08/04 07:50:48;;;;;;;9.07;5.10;;;;;;;;;;5071990;28;20068;-71
2023/08/04 07:53:14;;;;;;;8.90;4.75;;;;;;;;;;5071572;28;20046;-71
2023/08/04 07:55:40;;;;;;;8.65;4.45;;;;;;;;;;5071440;28;20044;-69
2023/08/04 07:58:07;;;;;;;9.57;4.28;;;;;;;;;;5071533;28;20119;-72
2023/08/04 08:00:33;;;;;;;6.03;4.28;;;;;;;;;;5071346;28;20024;-71
2023/08/04 08:02:59;;;;;;;8.73;4.60;;;;;;;;;;5071306;28;20501;-71
2023/08/04 08:05:25;;;;;;;8.32;3.72;;;;;;;;;;5071146;28;20021;-71
2023/08/04 08:07:51;;;;;;;5.85;3.63;;;;;;;;;;5071816;28;20036;-71
2023/08/04 08:10:18;;;;;;;6.93;4.40;;;;;;;;;;5071590;28;20028;-70
2023/08/04 08:12:44;;;;;;;8.65;4.35;;;;;;;;;;5071170;28;20044;-71
2023/08/04 08:15:10;;;;;;;5.75;3.95;;;;;;;;;;5070817;28;20016;-71
2023/08/04 08:17:37;;;;;;;10.13;4.13;;;;;;;;;;5070876;28;20087;-72
2023/08/04 08:20:05;;;;;;;9.35;4.00;;;;;;;;;;5071488;28;20027;-71
2023/08/04 08:22:32;;;;;;;5.80;3.80;;;;;;;;;;5069719;28;20036;-72
2023/08/04 08:24:58;;;;;;;5.30;3.83;;;;;;;;;;5071274;28;20036;-72
2023/08/04 08:27:24;;;;;;;7.85;3.85;;;;;;;;;;5070749;28;20086;-71
2023/08/04 08:29:54;;;;;;;9.38;4.10;;;;;;;;;;5071004;28;20025;-72
2023/08/04 08:32:21;;;;;;;5.90;3.95;;;;;;;;;;5071371;28;20028;-71
2023/08/04 08:34:47;;;;;;;7.05;4.18;;;;;;;;;;5070508;28;20025;-71
2023/08/04 08:37:13;;;;;;;6.45;4.10;;;;;;;;;;5070819;28;20478;-71
2023/08/04 08:39:39;;;;;;;4.75;3.72;;;;;;;;;;5053108;28;20561;-70
2023/08/04 08:42:05;;;;;;;8.05;4.60;;;;;;;;;;5071201;28;20049;-71
2023/08/04 08:44:41;;;;;;;6.45;3.97;;;;;;;;;;5070567;28;20098;-71
2023/08/04 08:47:08;;;;;;;8.15;3.83;;;;;;;;;;5070149;28;20098;-70
2023/08/04 08:49:40;;;;;;;6.75;3.58;;;;;;;;;;5072264;28;20035;-67
2023/08/04 08:52:10;;;;;;;6.22;3.70;;;;;;;;;;5074825;28;20441;-71
2023/08/04 08:54:37;;;;;;;9.90;4.45;;;;;;;;;;5074419;28;20035;-71
2023/08/04 08:57:05;;;;;;;7.53;4.68;;;;;;;;;;5074579;28;20055;-70
2023/08/04 09:00:20;;;;;;;7.05;4.25;;;;;;;;;;5074803;28;20032;-70
2023/08/04 09:02:23;;;;;;;6.30;4.13;;;;;;;;;;5067525;28;20056;-70
2023/08/04 09:04:49;;;;;;;6.57;4.15;;;;;;;;;;5073991;28;20068;-72
2023/08/04 09:07:15;;;;;;;5.03;4.20;;;;;;;;;;5056788;28;20066;-72
2023/08/04 09:09:41;;;;;;;8.98;4.00;;;;;;;;;;5074251;28;20382;-69
2023/08/04 09:12:08;;;;;;;5.30;3.85;;;;;;;;;;5074504;28;20119;-71
2023/08/04 09:14:56;;;;;;;5.85;4.18;;;;;;;;;;5074126;28;20033;-70
2023/08/04 09:17:36;;;;;;;6.65;4.20;;;;;;;;;;5055294;28;20429;-72
2023/08/04 09:20:06;;;;;;;6.60;3.90;;;;;;;;;;5074031;28;20076;-71
2023/08/04 09:22:37;;;;;;;7.40;3.67;;;;;;;;;;5074096;28;20111;-72
2023/08/04 09:25:04;;;;;;;5.78;4.05;;;;;;;;;;5073841;28;20040;-71
2023/08/04 09:27:33;;;;;;;6.30;3.90;;;;;;;;;;5074328;28;20052;-70
2023/08/04 09:30:02;;;;;;;5.28;3.72;;;;;;;;;;5074969;28;20052;-70
2023/08/04 09:32:28;;;;;;;6.88;3.47;;;;;;;;;;5056157;28;20033;-70
2023/08/04 09:35:05;;;;;;;13.70;5.57;;;;;;;;;;5073389;28;20060;-70
2023/08/04 09:37:33;;;;;;;5.10;3.85;;;;;;;;;;5074063;28;20359;-70
2023/08/04 09:40:03;;;;;;;7.20;3.78;;;;;;;;;;5074182;28;20029;-70
2023/08/04 09:42:31;;;;;;;5.32;3.55;;;;;;;;;;5073876;28;20040;-70
2023/08/04 09:44:56;;;;;;;5.63;3.70;;;;;;;;;;5073178;28;20074;-70
2023/08/04 09:47:27;;;;;;;6.45;3.80;;;;;;;;;;5073484;28;20028;-70
2023/08/04 09:49:54;;;;;;;4.05;3.53;;;;;;;;;;5073593;28;20108;-67
2023/08/04 09:52:21;;;;;;;6.88;3.72;;;;;;;;;;5073743;28;20138;-70
2023/08/04 09:54:48;;;;;;;7.38;3.90;;;;;;;;;;5073253;28;20486;-71
2023/08/04 09:57:22;;;;;;;4.95;3.78;;;;;;;;;;5073159;28;20039;-70
2023/08/04 09:59:49;;;;;;;7.82;3.70;;;;;;;;;;5073469;28;20394;-71
2023/08/04 10:02:16;;;;;;;9.60;4.10;;;;;;;;;;5072622;28;20024;-71
2023/08/04 10:04:43;;;;;;;7.75;3.95;;;;;;;;;;5073680;28;20063;-70
2023/08/04 10:07:09;;;;;;;5.25;3.22;;;;;;;;;;5069789;28;20356;-71
2023/08/04 10:09:35;;;;;;;4.55;3.05;;;;;;;;;;5051469;28;20596;-72
2023/08/04 10:12:02;;;;;;;4.93;3.70;;;;;;;;;;5052872;28;20036;-71
2023/08/04 10:14:28;;;;;;;5.88;3.00;;;;;;;;;;5072535;28;20040;-71
2023/08/04 10:16:54;;;;;;;6.88;4.00;;;;;;;;;;5072159;28;20028;-72
2023/08/04 10:19:23;;;;;;;8.65;3.50;;;;;;;;;;5073007;28;20047;-70
2023/08/04 10:21:49;;;;;;;5.53;3.33;;;;;;;;;;5072855;28;20020;-70
2023/08/04 10:24:19;;;;;;;6.82;3.20;;;;;;;;;;5072525;28;20032;-70
2023/08/04 10:26:52;;;;;;;6.93;3.33;;;;;;;;;;5072705;28;20074;-70
2023/08/04 10:29:19;;;;;;;5.20;3.30;;;;;;;;;;5073194;28;20545;-73
2023/08/04 10:31:55;;;;;;;4.55;3.35;;;;;;;;;;5072661;28;20025;-72
2023/08/04 10:34:31;;;;;;;5.38;3.45;;;;;;;;;;5072309;28;20028;-72
2023/08/04 10:37:00;;;;;;;5.10;3.17;;;;;;;;;;5073379;28;20553;-72
2023/08/04 10:39:30;;;;;;;5.00;3.30;;;;;;;;;;5072307;28;20040;-71
2023/08/04 10:41:56;;;;;;;7.75;3.60;;;;;;;;;;5071282;28;20071;-72
2023/08/04 10:44:49;;;;;;;4.95;3.42;;;;;;;;;;5070968;28;20025;-71
2023/08/04 10:47:27;;;;;;;5.60;3.50;;;;;;;;;;5071937;28;20043;-71
2023/08/04 10:49:54;;;;;;;6.22;3.20;;;;;;;;;;5072667;28;20039;-71
2023/08/04 10:52:19;;;;;;;7.28;3.33;;;;;;;;;;5071499;28;20020;-70
2023/08/04 10:54:45;;;;;;;8.10;3.67;;;;;;;;;;5073108;28;20521;-71
2023/08/04 10:57:21;;;;;;;4.47;3.10;;;;;;;;;;5072992;28;20386;-71
2023/08/04 10:59:50;;;;;;;4.63;3.67;;;;;;;;;;5072297;28;20066;-70
2023/08/04 11:02:18;;;;;;;7.45;3.30;;;;;;;;;;5072354;28;20025;-71
2023/08/04 11:04:45;;;;;;;4.65;3.58;;;;;;;;;;5072445;28;20072;-70
2023/08/04 11:07:12;;;;;;;8.10;3.25;;;;;;;;;;5072258;28;20028;-72
2023/08/04 11:09:38;;;;;;;6.05;3.20;;;;;;;;;;5072529;28;20513;-71
2023/08/04 11:12:07;;;;;;;6.88;3.70;;;;;;;;;;5072576;28;20025;-71
2023/08/04 11:14:34;;;;;;;4.82;2.75;;;;;;;;;;5071498;28;20040;-70
2023/08/04 11:17:01;;;;;;;6.13;3.60;;;;;;;;;;5072444;28;20108;-71
2023/08/04 11:19:32;;;;;;;5.88;3.60;;;;;;;;;;5072306;28;20041;-70
2023/08/04 11:22:07;;;;;;;5.18;3.53;;;;;;;;;;5072216;28;20115;-71
2023/08/04 11:24:33;;;;;;;6.93;3.30;;;;;;;;;;5072036;28;20062;-71
2023/08/04 11:26:58;;;;;;;4.60;3.45;;;;;;;;;;5072032;28;20378;-72
2023/08/04 11:29:25;;;;;;;4.35;3.10;;;;;;;;;;5072144;28;20042;-72
2023/08/04 11:31:51;;;;;;;5.85;3.60;;;;;;;;;;5054283;28;20035;-71
2023/08/04 11:34:17;;;;;;;4.72;3.05;;;;;;;;;;5071748;28;20029;-71
2023/08/04 11:36:43;;;;;;;6.47;2.90;;;;;;;;;;5072438;28;20621;-72
2023/08/04 11:39:09;;;;;;;5.85;3.28;;;;;;;;;;5072082;28;20032;-71
2023/08/04 11:41:36;;;;;;;5.20;3.65;;;;;;;;;;5054470;28;20235;-72
2023/08/04 11:44:03;;;;;;;5.15;3.00;;;;;;;;;;5071597;28;20055;-71
2023/08/04 11:46:30;;;;;;;4.28;2.97;;;;;;;;;;5072064;28;20074;-70
2023/08/04 11:48:56;;;;;;;4.25;3.45;;;;;;;;;;5072269;28;20033;-72
2023/08/04 11:51:23;;;;;;;4.80;3.13;;;;;;;;;;5072057;28;20150;-73
2023/08/04 11:53:49;;;;;;;5.57;3.28;;;;;;;;;;5071862;28;20028;-72
2023/08/04 11:56:15;;;;;;;8.70;3.42;;;;;;;;;;5071108;28;20680;-73
2023/08/04 11:58:43;;;;;;;5.00;3.33;;;;;;;;;;5071685;28;20134;-72
2023/08/04 12:01:27;;;;;;;4.85;3.15;;;;;;;;;;5072375;28;20513;-72
2023/08/04 12:03:56;;;;;;;5.03;3.60;;;;;;;;;;5071697;28;20048;-72
2023/08/04 12:06:24;;;;;;;8.27;3.45;;;;;;;;;;5071645;28;20500;-73
2023/08/04 12:08:55;;;;;;;5.35;3.33;;;;;;;;;;5071767;28;20035;-72
2023/08/04 12:11:24;;;;;;;6.05;3.42;;;;;;;;;;5071972;28;20032;-72
2023/08/04 12:13:50;;;;;;;6.45;3.20;;;;;;;;;;5071049;28;20502;-71
2023/08/04 12:16:19;;;;;;;5.55;3.30;;;;;;;;;;5071566;28;20043;-72
2023/08/04 12:18:45;;;;;;;4.65;3.15;;;;;;;;;;5071634;28;20335;-72
2023/08/04 12:21:15;;;;;;;7.10;3.55;;;;;;;;;;5053358;28;20486;-73
2023/08/04 12:23:50;;;;;;;5.70;3.55;;;;;;;;;;5071260;28;20032;-72
2023/08/04 12:26:16;;;;;;;6.32;3.50;;;;;;;;;;5075366;28;20044;-71
2023/08/04 12:28:45;;;;;;;6.93;3.30;;;;;;;;;;5057421;28;20111;-71
2023/08/04 12:31:11;;;;;;;5.03;3.63;;;;;;;;;;5075416;28;20059;-71
2023/08/04 12:33:37;;;;;;;3.72;2.97;;;;;;;;;;5075081;28;20477;-70
2023/08/04 12:36:03;;;;;;;9.48;3.67;;;;;;;;;;5075278;28;20103;-71
2023/08/04 12:38:38;;;;;;;4.97;3.40;;;;;;;;;;5075317;28;20035;-70
2023/08/04 12:41:04;;;;;;;3.92;3.22;;;;;;;;;;5075198;28;20108;-71
2023/08/04 12:43:32;;;;;;;6.75;3.40;;;;;;;;;;5057621;28;20055;-72
2023/08/04 12:45:59;;;;;;;4.72;3.13;;;;;;;;;;5072899;28;20492;-72
2023/08/04 12:48:28;;;;;;;4.20;3.25;;;;;;;;;;5052913;28;20035;-71
2023/08/04 12:50:55;;;;;;;8.02;3.40;;;;;;;;;;5055511;28;20043;-72
2023/08/04 12:53:24;;;;;;;4.88;3.28;;;;;;;;;;5054690;28;20441;-73
2023/08/04 12:55:49;;;;;;;4.85;3.78;;;;;;;;;;5054602;28;20479;-72
2023/08/04 12:58:15;;;;;;;3.78;3.00;;;;;;;;;;5054507;28;20047;-72
2023/08/04 13:00:42;;;;;;;6.78;3.20;;;;;;;;;;5055121;28;20075;-72
2023/08/04 13:03:08;;;;;;;6.63;3.50;;;;;;;;;;5054119;28;20488;-72
2023/08/04 13:05:34;;;;;;;5.32;3.03;;;;;;;;;;5053771;28;20068;-71
2023/08/04 13:08:00;;;;;;;4.65;3.38;;;;;;;;;;5054292;28;20442;-72
2023/08/04 13:10:26;;;;;;;5.32;3.10;;;;;;;;;;5054153;28;20041;-72
2023/08/04 13:12:52;;;;;;;4.82;3.35;;;;;;;;;;5054188;28;20021;-71
2023/08/04 13:15:18;;;;;;;4.70;3.30;;;;;;;;;;5054018;28;20029;-72
2023/08/04 13:17:44;;;;;;;4.15;3.28;;;;;;;;;;5052677;28;20036;-71
2023/08/04 13:20:16;;;;;;;5.28;3.13;;;;;;;;;;5053940;28;20032;-73
2023/08/04 13:22:42;;;;;;;4.68;3.17;;;;;;;;;;5036592;28;20402;-72
2023/08/04 13:25:11;;;;;;;4.50;3.10;;;;;;;;;;5053984;28;20021;-70
2023/08/04 13:27:40;;;;;;;5.30;3.15;;;;;;;;;;5054133;28;20163;-70
2023/08/04 13:30:10;;;;;;;6.13;3.55;;;;;;;;;;5052768;28;20154;-72
2023/08/04 13:32:36;;;;;;;5.32;3.20;;;;;;;;;;5053810;28;20039;-72
2023/08/04 13:35:02;;;;;;;4.10;3.13;;;;;;;;;;5054009;28;20104;-72
2023/08/04 13:37:28;;;;;;;4.25;3.00;;;;;;;;;;5053903;28;20528;-71
2023/08/04 13:39:54;;;;;;;3.97;3.00;;;;;;;;;;5052638;28;20123;-73
2023/08/04 13:42:20;;;;;;;3.80;2.83;;;;;;;;;;5062819;28;20115;-72
2023/08/04 13:44:46;;;;;;;5.72;2.88;;;;;;;;;;5072904;28;20112;-72
2023/08/04 13:47:16;;;;;;;5.88;3.20;;;;;;;;;;5056694;28;20406;-72
2023/08/04 13:49:42;;;;;;;3.63;2.65;;;;;;;;;;5073860;28;20051;-72
2023/08/04 13:52:09;;;;;;;3.85;2.80;;;;;;;;;;5073049;28;20124;-72
2023/08/04 13:54:35;;;;;;;4.10;2.70;;;;;;;;;;5071207;28;20040;-72
2023/08/04 13:57:01;;;;;;;4.28;2.92;;;;;;;;;;5073380;28;20471;-73
2023/08/04 13:59:27;;;;;;;5.70;2.75;;;;;;;;;;5073559;28;20124;-72
2023/08/04 14:01:53;;;;;;;6.15;2.95;;;;;;;;;;5073361;28;20043;-72
2023/08/04 14:04:19;;;;;;;5.15;3.13;;;;;;;;;;5062286;28;20028;-71
2023/08/04 14:06:45;;;;;;;4.32;2.70;;;;;;;;;;5073377;28;20086;-72
2023/08/04 14:09:10;;;;;;;4.20;3.08;;;;;;;;;;5073574;28;20017;-71
2023/08/04 14:11:36;;;;;;;4.10;2.80;;;;;;;;;;5073864;28;20128;-71
2023/08/04 14:14:02;;;;;;;4.05;2.70;;;;;;;;;;5073193;28;20428;-71
2023/08/04 14:16:28;;;;;;;4.20;3.05;;;;;;;;;;5053778;28;20577;-70
2023/08/04 14:18:54;;;;;;;7.18;3.00;;;;;;;;;;5054347;28;20046;-70
2023/08/04 14:21:20;;;;;;;6.00;2.80;;;;;;;;;;5073144;28;20514;-72
2023/08/04 14:23:46;;;;;;;6.03;2.88;;;;;;;;;;5073201;28;20493;-71
2023/08/04 14:26:12;;;;;;;5.28;2.83;;;;;;;;;;5072493;28;20126;-72
2023/08/04 14:28:38;;;;;;;5.15;2.90;;;;;;;;;;5073674;28;20032;-71
2023/08/04 14:31:03;;;;;;;5.40;2.97;;;;;;;;;;5073608;28;20039;-72
2023/08/04 14:33:29;;;;;;;5.88;2.83;;;;;;;;;;5072743;28;20363;-70
2023/08/04 14:35:56;;;;;;;3.53;2.90;;;;;;;;;;5073132;28;20433;-70
2023/08/04 14:38:22;;;;;;;4.00;2.78;;;;;;;;;;5072630;28;20082;-72
2023/08/04 14:40:51;;;;;;;4.22;2.80;;;;;;;;;;5072662;28;20036;-72
2023/08/04 14:43:17;;;;;;;4.63;3.00;;;;;;;;;;5072762;28;20024;-70
2023/08/04 14:45:42;;;;;;;3.80;2.60;;;;;;;;;;5071960;28;20032;-73
2023/08/04 14:48:08;;;;;;;3.60;2.60;;;;;;;;;;5069847;28;20382;-72
2023/08/04 14:50:40;;;;;;;5.60;2.38;;;;;;;;;;5072451;28;20107;-71
2023/08/04 14:53:07;;;;;;;5.07;2.92;;;;;;;;;;5072069;28;20036;-71
2023/08/04 14:55:36;;;;;;;4.57;2.90;;;;;;;;;;5071880;28;20436;-72
2023/08/04 14:58:03;;;;;;;5.85;2.72;;;;;;;;;;5072608;28;20120;-71
2023/08/04 15:00:29;;;;;;;3.95;2.70;;;;;;;;;;5072657;28;20077;-70
2023/08/04 15:02:55;;;;;;;3.53;2.60;;;;;;;;;;5072678;28;20382;-71
2023/08/04 15:05:20;;;;;;;6.78;3.08;;;;;;;;;;5072515;28;20028;-73
2023/08/04 15:07:46;;;;;;;4.00;2.53;;;;;;;;;;5071241;28;20028;-70
2023/08/04 15:10:12;;;;;;;5.40;2.70;;;;;;;;;;5072257;28;20036;-71
2023/08/04 15:12:38;;;;;;;4.90;3.28;;;;;;;;;;5057036;28;20494;-71
2023/08/04 15:15:05;;;;;;;5.72;3.33;;;;;;;;;;5052209;28;20059;-71
2023/08/04 15:17:31;;;;;;;7.32;2.80;;;;;;;;;;5052146;28;20120;-70
2023/08/04 15:19:57;;;;;;;3.47;2.55;;;;;;;;;;5071320;28;20111;-70
2023/08/04 15:22:22;;;;;;;7.25;2.60;;;;;;;;;;5072036;28;20485;-69
2023/08/04 15:24:48;;;;;;;3.53;2.58;;;;;;;;;;5071606;28;20391;-69
2023/08/04 15:27:17;;;;;;;3.50;2.35;;;;;;;;;;5053897;28;20040;-70
2023/08/04 15:29:43;;;;;;;3.75;2.28;;;;;;;;;;5071634;28;20020;-69
2023/08/04 15:32:09;;;;;;;3.40;2.30;;;;;;;;;;5065330;28;20044;-71
2023/08/04 15:34:35;;;;;;;3.90;2.60;;;;;;;;;;5050278;28;20024;-71
2023/08/04 15:37:01;;;;;;;4.35;2.75;;;;;;;;;;5086993;28;20470;-72
2023/08/04 15:39:27;;;;;;;6.47;2.60;;;;;;;;;;5071797;28;20033;-71
2023/08/04 15:41:53;;;;;;;7.53;2.70;;;;;;;;;;5071855;28;20444;-70
2023/08/04 15:44:19;;;;;;;5.78;2.60;;;;;;;;;;5070852;28;20021;-71
2023/08/04 15:46:45;;;;;;;3.67;2.30;;;;;;;;;;5070876;28;20028;-70
2023/08/04 15:49:10;;;;;;;4.78;2.42;;;;;;;;;;5072075;28;20098;-71
2023/08/04 15:51:36;;;;;;;4.60;2.50;;;;;;;;;;5072121;28;20135;-69
2023/08/04 15:54:02;;;;;;;4.05;2.92;;;;;;;;;;5037301;28;20197;-70
2023/08/04 15:56:28;;;;;;;4.57;2.33;;;;;;;;;;5071562;28;20551;-71
2023/08/04 15:58:53;;;;;;;4.60;2.55;;;;;;;;;;5070817;28;20044;-69
2023/08/04 16:01:19;;;;;;;3.95;2.17;;;;;;;;;;5071899;28;20406;-70
2023/08/04 16:03:45;;;;;;;6.20;2.80;;;;;;;;;;5071255;28;20370;-70
2023/08/04 16:06:12;;;;;;;4.32;2.65;;;;;;;;;;5071432;28;20546;-71
2023/08/04 16:08:37;;;;;;;3.90;2.65;;;;;;;;;;5071589;28;20016;-71
2023/08/04 16:11:05;;;;;;;4.97;2.80;;;;;;;;;;5051475;28;20037;-71
2023/08/04 16:13:34;;;;;;;3.92;2.70;;;;;;;;;;5071134;28;20035;-72
2023/08/04 16:16:05;;;;;;;3.67;2.60;;;;;;;;;;5050857;28;20036;-72
2023/08/04 16:18:35;;;;;;;3.28;2.60;;;;;;;;;;5050564;28;20106;-72
2023/08/04 16:21:03;;;;;;;3.92;2.58;;;;;;;;;;5043114;28;20029;-72
2023/08/04 16:23:28;;;;;;;3.25;2.65;;;;;;;;;;5050917;28;20033;-72
2023/08/04 16:25:55;;;;;;;3.35;2.42;;;;;;;;;;5050492;28;20132;-73
2023/08/04 16:28:20;;;;;;;3.55;2.67;;;;;;;;;;5050928;28;20540;-74
2023/08/04 16:30:46;;;;;;;4.90;2.70;;;;;;;;;;5050800;28;20132;-73
2023/08/04 16:33:14;;;;;;;5.93;2.35;;;;;;;;;;5050782;28;20024;-73
2023/08/04 16:35:44;;;;;;;3.70;2.33;;;;;;;;;;5050246;28;20037;-73
2023/08/04 16:38:11;;;;;;;3.30;2.50;;;;;;;;;;5050757;28;20072;-72
2023/08/04 16:40:37;;;;;;;4.40;2.55;;;;;;;;;;5051012;28;20036;-71
2023/08/04 16:43:04;;;;;;;5.13;2.72;;;;;;;;;;5050834;28;20025;-72
2023/08/04 16:45:33;;;;;;;4.25;2.70;;;;;;;;;;5032770;28;20455;-73
2023/08/04 16:48:00;;;;;;;4.53;2.38;;;;;;;;;;5050600;28;20032;-73
2023/08/04 16:50:26;;;;;;;3.53;2.70;;;;;;;;;;5049429;28;20140;-71
2023/08/04 16:52:55;;;;;;;4.00;2.63;;;;;;;;;;5051202;28;20146;-72
2023/08/04 16:55:25;;;;;;;4.25;2.78;;;;;;;;;;5050925;28;20494;-72
2023/08/04 16:57:51;;;;;;;6.32;3.47;;;;;;;;;;5050640;28;20395;-72
2023/08/04 17:00:17;;;;;;;9.60;3.05;;;;;;;;;;5050551;28;20028;-71
2023/08/04 17:02:43;;;;;;;4.95;2.33;;;;;;;;;;5049797;28;20033;-72
2023/08/04 17:05:12;;;;;;;5.45;2.70;;;;;;;;;;5050106;28;20490;-73
2023/08/04 17:07:38;;;;;;;6.60;3.15;;;;;;;;;;5050710;28;20393;-73
2023/08/04 17:10:05;;;;;;;4.32;2.83;;;;;;;;;;5050786;28;20025;-73
2023/08/04 17:12:32;;;;;;;6.40;3.00;;;;;;;;;;5053833;28;20721;-72
2023/08/04 17:14:58;;;;;;;5.50;2.90;;;;;;;;;;5053223;28;20759;-72
2023/08/04 17:17:24;;;;;;;5.38;3.00;;;;;;;;;;5054090;28;20483;-72
2023/08/04 17:19:56;;;;;;;6.55;2.63;;;;;;;;;;5036462;28;20474;-73
2023/08/04 17:22:23;;;;;;;4.90;3.40;;;;;;;;;;5054298;28;20487;-73
2023/08/04 17:24:50;;;;;;;4.43;2.90;;;;;;;;;;5054251;28;20440;-72
2023/08/04 17:27:19;;;;;;;5.30;3.10;;;;;;;;;;5036496;28;20063;-73
2023/08/04 17:29:45;;;;;;;4.72;3.25;;;;;;;;;;5053887;28;20548;-73
2023/08/04 17:32:11;;;;;;;4.93;3.00;;;;;;;;;;5054337;28;20036;-72
2023/08/04 17:34:59;;;;;;;;;;;;;;;;;;;;;
2023/08/04 17:37:30;;;;;;;5.10;3.28;;;;;;;;;;5054242;28;20083;-73
2023/08/04 17:40:12;;;;;;;4.15;3.05;;;;;;;;;;5054285;28;20530;-72
2023/08/04 17:43:01;;;;;;;6.82;3.50;;;;;;;;;;5056514;28;20037;-73
2023/08/04 17:45:28;;;;;;;5.18;3.42;;;;;;;;;;5055658;28;20457;-74
2023/08/04 17:47:54;;;;;;;6.32;3.20;;;;;;;;;;5036482;28;20020;-74
2023/08/04 17:50:20;;;;;;;8.70;3.17;;;;;;;;;;5036647;28;20033;-72
2023/08/04 17:52:46;;;;;;;8.30;3.92;;;;;;;;;;5053590;28;20025;-74
2023/08/04 17:55:12;;;;;;;9.00;3.90;;;;;;;;;;5053694;28;20036;-74
2023/08/04 17:57:38;;;;;;;6.57;3.60;;;;;;;;;;5053975;28;20029;-73
2023/08/04 18:00:05;;;;;;;10.20;6.05;;;;;;;;;;5053981;28;20029;-74
2023/08/04 18:02:42;;;;;;;12.18;6.65;;;;;;;;;;5053916;28;20021;-74
2023/08/04 18:05:08;;;;;;;12.15;7.68;;;;;;;;;;5053037;28;20036;-72
2023/08/04 18:07:34;;;;;;;8.60;5.13;;;;;;;;;;5053589;28;20029;-74
2023/08/04 18:10:01;;;;;;;5.68;3.47;;;;;;;;;;5036109;28;20086;-73
2023/08/04 18:12:27;;;;;;;22.85;14.82;;;;;;;;;;5053331;28;20044;-75
2023/08/04 18:14:52;;;;;;;15.60;9.38;;;;;;;;;;5053182;28;20491;-74
2023/08/04 18:17:18;;;;;;;6.47;3.22;;;;;;;;;;5035684;28;20444;-74
2023/08/04 18:19:44;;;;;;;7.03;3.63;;;;;;;;;;5061667;28;20029;-75
2023/08/04 18:22:10;;;;;;;5.78;3.78;;;;;;;;;;5051816;28;20024;-74
2023/08/04 18:24:36;;;;;;;9.52;3.70;;;;;;;;;;5050874;28;20048;-75